This is the latest recevied weather packets stored in our database for station/object W3BRL. If no packets are shown the sender has not sent any weather packets the latest 10 day(s).
| Time | Temp. | Humidity | Pressure | Rain* | Wind** | Luminosity | Snow |
|---|---|---|---|---|---|---|---|
| 1777738248 | 5° C | 86% | 1012.9 hPa | 0 mm | - | 232 W/m² | - |
| 1777737945 | 5° C | 86% | 1013 hPa | 0 mm | - | 116 W/m² | - |
| 1777737644 | 4.44° C | 85% | 1012.8 hPa | 0 mm | - | 90 W/m² | - |
| 1777737342 | 5° C | 84% | 1013 hPa | 0 mm | - | 66 W/m² | - |
| 1777737039 | 5° C | 82% | 1013.1 hPa | 0 mm | - | 53 W/m² | - |
| 1777736735 | 5.56° C | 77% | 1012.9 hPa | 0 mm | - | 31 W/m² | - |
| 1777735804 | 8.33° C | 64% | 1012.4 hPa | 0 mm | - | 105 W/m² | - |
| 1777735501 | 8.33° C | 63% | 1012.2 hPa | 0 mm | - | 188 W/m² | - |
| 1777735198 | 7.78° C | 66% | 1012.5 hPa | 0 mm | - | 932 W/m² | - |
| 1777734895 | 7.22° C | 73% | 1012.4 hPa | 0 mm | - | 853 W/m² | - |
| 1777734593 | 6.67° C | 78% | 1012.4 hPa | 0 mm | - | 235 W/m² | - |
| 1777734290 | 6.67° C | 83% | 1012.5 hPa | 0 mm | - | 184 W/m² | - |
| 1777733985 | 6.67° C | 88% | 1012.5 hPa | 0 mm | - | 171 W/m² | - |
| 1777733682 | 6.67° C | 88% | 1012.5 hPa | 0 mm | - | 155 W/m² | - |
| 1777733379 | 6.67° C | 90% | 1012.5 hPa | 0 mm | - | 311 W/m² | - |
| 1777733075 | 6.67° C | 90% | 1012.5 hPa | 0 mm | - | 112 W/m² | - |
| 1777732772 | 5.56° C | 93% | 1012.5 hPa | 0 mm | - | 254 W/m² | - |
| 1777732469 | 5.56° C | 94% | 1012.6 hPa | 0 mm | - | 307 W/m² | - |
| 1777732166 | 5.56° C | 96% | 1012.8 hPa | 0 mm | - | 559 W/m² | - |
| 1777731863 | 5° C | 98% | 1012.9 hPa | 0 mm | - | 340 W/m² | - |
| 1777731560 | 5° C | 98% | 1012.8 hPa | 0 mm | - | 473 W/m² | - |
| 1777731258 | 4.44° C | 98% | 1012.8 hPa | 0 mm | - | 331 W/m² | - |
| 1777730955 | 4.44° C | 98% | 1012.6 hPa | 0 mm | - | 164 W/m² | - |
| 1777730653 | 4.44° C | 98% | 1012.4 hPa | 0 mm | - | 176 W/m² | - |
| 1777730349 | 4.44° C | 98% | 1012.5 hPa | 0 mm | - | 74 W/m² | - |
* Rain latest hour (hover to see other rain measurements)
** Current wind speed in m/s (hover to see current wind gust speed)